Weather at Slavotin Cropduster Strip [CLOSED]

Public forecast

Using degrees Celsius for public forecast. Weather courtesy of forecast.io.

Closest aviation weather report (METAR) to Slavotin Cropduster Strip

Closest report is Sofia Airport, 53.8 nm (99.6 km) SSE.

2024/05/21 06:30 (retrieved 37 minutes ago)

LBSF 210630Z 10013KT 9999 FEW025 SCT040 17/10 Q1017 NOSIG

Closest aviation forecast (TAF) to Slavotin Cropduster Strip

Closest forecast is Sofia Airport, 53.8 nm (99.6 km) SSE.

2024/05/21 06:18 (retrieved 49 minutes ago)

TAF LBSF 210500Z 2106/2206 11014KT 9999 SCT020 BKN050 TEMPO 2112/2117 5000 TSRA FEW030CB BKN040 BECMG 2120/2122 VRB04KT